Hangzhou Xiaoshan International Airport
ZSHC : now visible

Airfield :











YOU CAN JOIN US ON...

 
LOGIN :

Register | Disclaimer

   EN    FR    IT 

 









Legend :    VFR   Marginal VFR   IFR   Intensive IFR   Very Intensive IFR
Visi :
Ceiling :
>= 8 km
>= 3000ft
5 to 8 km
1000 to 3000 ft
1500m to 5 km
500 to 1000 ft
800 to 1500m
200 to 500 ft
< 800m
< 200 ft
Symbols :   Thunderstorms  Fog  Heavy snow  Heavy precipitations  Wind > 20 kt






- Airport Elevation : 23 ft
- IATA code : HGH


ZSHC - Hangzhou Xiaoshan International

CURRENT METAR :
  • 140700Z 11003MPS 070V140 4000 HZ FEW030 16/06 Q1026 NOSIG

EXPIRED METARs :
  • 140630Z 12003MPS 4000 HZ SCT030 16/07 Q1026 NOSIG
  • 140600Z 12002MPS 050V150 4000 HZ BKN030 16/07 Q1026 NOSIG
  • 140530Z 08004MPS 040V110 4000 HZ BKN030 17/06 Q1026 NOSIG
  • 140500Z 06003MPS 040V100 4000 HZ BKN030 17/06 Q1026 NOSIG
  • 140430Z 09002MPS 030V140 4000 HZ BKN030 16/07 Q1027 NOSIG

TAF TAF ZSHC
Valid from the 14 at 06:00 until the 15 at 06:00 UTC


140308Z 1406/1506 09003MPS 3000 HZ NSC TX19/1505Z TN08/1421Z



MET'MAP, your aeronautical weather chart ! - Copyright ORBIFLY December 2007 - Disclaimer

ORBIFLY MET'MAP TEAM :

Programming & Development : Alexandra Zaïnal
Concept & original design : Baudouin d'Aumeries
Assistance for programming : Marc-Olivier Méhu
Technical & hardware support : Manuel Goepfert

Contact : metmap@orbifly.com




SOURCES & CREDITS :

   NOAA       Earth
Advisory